Time;durP1;ratioP1;P1;durP2;ratioP2;P2;SDS_P1;SDS_P2;PMS_P1;PMS_P2;Temp;Humidity;BMP_temperature;BMP_pressure;BME280_temperature;BME280_humidity;BME280_pressure;Samples;Min_cycle;Max_cycle;Signal;HPM_P1;HPM_P2
2023/09/23 00:00:47;;;;;;;10.93;6.20;;;12.70;99.90;;;;;;5050902;28;20025;-52
2023/09/23 00:03:12;;;;;;;12.93;5.70;;;12.60;99.90;;;;;;5051052;28;20086;-54
2023/09/23 00:05:39;;;;;;;11.50;6.75;;;12.60;99.90;;;;;;5051059;28;20033;-51
2023/09/23 00:08:08;;;;;;;11.98;6.00;;;12.60;99.90;;;;;;5051148;28;20033;-51
2023/09/23 00:10:38;;;;;;;13.18;5.65;;;12.60;99.90;;;;;;5050685;28;20439;-51
2023/09/23 00:13:03;;;;;;;9.38;5.05;;;12.60;99.90;;;;;;5050992;28;20032;-51
2023/09/23 00:15:30;;;;;;;8.65;4.88;;;12.60;99.90;;;;;;5051426;28;20369;-55
2023/09/23 00:17:56;;;;;;;8.50;4.47;;;12.60;99.90;;;;;;5050726;28;20029;-51
2023/09/23 00:20:22;;;;;;;7.13;3.90;;;12.50;99.90;;;;;;5050746;28;20036;-51
2023/09/23 00:22:48;;;;;;;9.27;4.22;;;12.50;99.90;;;;;;5050961;28;20036;-52
2023/09/23 00:25:18;;;;;;;8.18;3.90;;;12.60;99.90;;;;;;5049710;28;20041;-51
2023/09/23 00:27:44;;;;;;;7.65;3.90;;;12.60;99.90;;;;;;5051308;28;20111;-53
2023/09/23 00:30:12;;;;;;;10.32;3.97;;;12.50;99.90;;;;;;5049590;28;20595;-53
2023/09/23 00:32:39;;;;;;;7.72;3.97;;;12.50;99.90;;;;;;5051092;28;20397;-53
2023/09/23 00:35:06;;;;;;;7.65;3.58;;;12.50;99.90;;;;;;5033308;28;20127;-53
2023/09/23 00:37:33;;;;;;;6.80;3.30;;;12.60;99.90;;;;;;5051184;28;20035;-54
2023/09/23 00:39:59;;;;;;;5.32;3.00;;;12.50;99.90;;;;;;5049884;28;20056;-58
2023/09/23 00:42:25;;;;;;;6.28;2.95;;;12.50;99.90;;;;;;5052223;28;20029;-56
2023/09/23 00:44:50;;;;;;;7.32;2.55;;;12.50;99.90;;;;;;5051337;28;20059;-56
2023/09/23 00:47:18;;;;;;;7.55;3.05;;;12.50;99.90;;;;;;5052712;28;20036;-55
2023/09/23 00:49:44;;;;;;;4.10;2.58;;;12.60;99.90;;;;;;5051386;28;20393;-56
2023/09/23 00:52:13;;;;;;;4.73;2.37;;;12.50;99.90;;;;;;5051174;28;20025;-59
2023/09/23 00:54:42;;;;;;;4.03;1.88;;;12.40;99.90;;;;;;5051300;28;20119;-55
2023/09/23 00:57:10;;;;;;;5.57;2.67;;;12.40;99.90;;;;;;5050431;28;20071;-52
2023/09/23 00:59:36;;;;;;;3.00;1.50;;;12.40;99.90;;;;;;5049995;28;20112;-56
2023/09/23 01:02:03;;;;;;;4.15;1.95;;;12.30;99.90;;;;;;5049239;28;20052;-53
2023/09/23 01:04:28;;;;;;;5.20;2.10;;;12.20;99.90;;;;;;5049045;28;20067;-51
2023/09/23 01:06:54;;;;;;;3.67;1.80;;;12.10;99.90;;;;;;5050373;28;20064;-55
2023/09/23 01:09:21;;;;;;;19.73;9.30;;;12.20;99.90;;;;;;5048487;28;20073;-53
2023/09/23 01:11:51;;;;;;;18.67;9.48;;;12.20;99.90;;;;;;5048834;28;20029;-53
2023/09/23 01:14:22;;;;;;;26.90;11.90;;;12.20;99.90;;;;;;5054287;28;20024;-53
2023/09/23 01:16:51;;;;;;;21.07;11.17;;;12.20;99.90;;;;;;5053164;28;20105;-52
2023/09/23 01:19:25;;;;;;;19.58;10.40;;;12.30;99.90;;;;;;5053929;28;20022;-55
2023/09/23 01:21:53;;;;;;;19.35;10.82;;;12.20;99.90;;;;;;5052963;28;20090;-56
2023/09/23 01:24:19;;;;;;;18.48;9.57;;;12.20;99.90;;;;;;5052841;28;20044;-53
2023/09/23 01:26:52;;;;;;;18.48;8.35;;;12.30;99.90;;;;;;5036378;28;20353;-54
2023/09/23 01:29:24;;;;;;;15.32;7.50;;;12.20;99.90;;;;;;5052387;28;20044;-55
2023/09/23 01:32:06;;;;;;;15.35;7.28;;;12.20;99.90;;;;;;5054530;28;21992;-55
2023/09/23 01:34:32;;;;;;;13.85;5.82;;;12.20;99.90;;;;;;5052946;28;20048;-53
2023/09/23 01:36:58;;;;;;;14.65;6.28;;;12.20;99.90;;;;;;5054343;28;20440;-51
2023/09/23 01:39:24;;;;;;;13.18;5.70;;;12.20;99.90;;;;;;5053700;28;20025;-51
2023/09/23 01:41:53;;;;;;;9.43;5.03;;;12.20;99.90;;;;;;5054170;28;20029;-55
2023/09/23 01:44:19;;;;;;;9.55;4.85;;;12.20;99.90;;;;;;5052800;28;20032;-51
2023/09/23 01:46:46;;;;;;;11.85;4.60;;;12.20;99.90;;;;;;5052704;28;20040;-52
2023/09/23 01:49:12;;;;;;;7.57;4.37;;;12.20;99.90;;;;;;5052214;28;20060;-54
2023/09/23 01:51:37;;;;;;;7.78;3.65;;;12.20;99.90;;;;;;5051964;28;20071;-54
2023/09/23 01:54:03;;;;;;;8.27;4.30;;;12.10;99.90;;;;;;5052366;28;20056;-55
2023/09/23 01:56:31;;;;;;;8.57;4.37;;;12.20;99.90;;;;;;5052589;28;20037;-51
2023/09/23 01:58:56;;;;;;;8.48;4.00;;;12.10;99.90;;;;;;5051949;28;20078;-51
2023/09/23 02:01:22;;;;;;;10.63;4.23;;;12.10;99.90;;;;;;5051949;28;20025;-53
2023/09/23 02:03:51;;;;;;;8.47;4.43;;;12.10;99.90;;;;;;5053456;28;20033;-55
2023/09/23 02:06:17;;;;;;;10.07;4.65;;;12.10;99.90;;;;;;5051948;28;20425;-55
2023/09/23 02:08:43;;;;;;;9.30;4.40;;;12.10;99.90;;;;;;5051861;28;20036;-55
2023/09/23 02:11:08;;;;;;;8.80;4.77;;;12.10;99.90;;;;;;5051881;28;20045;-53
2023/09/23 02:13:36;;;;;;;10.37;4.43;;;12.10;99.90;;;;;;5052021;28;20477;-54
2023/09/23 02:16:04;;;;;;;21.55;10.43;;;12.00;99.90;;;;;;5051975;28;20122;-51
2023/09/23 02:18:30;;;;;;;10.57;4.90;;;12.10;99.90;;;;;;5051467;28;20033;-54
2023/09/23 02:20:56;;;;;;;8.97;4.50;;;12.10;99.90;;;;;;5051572;28;20086;-50
2023/09/23 02:23:22;;;;;;;9.23;4.10;;;12.10;99.90;;;;;;5050885;28;20060;-53
2023/09/23 02:25:50;;;;;;;8.73;3.97;;;12.10;99.90;;;;;;5052613;28;20086;-52
2023/09/23 02:28:18;;;;;;;8.13;4.13;;;12.10;99.90;;;;;;5051606;28;20066;-51
2023/09/23 02:30:44;;;;;;;9.27;4.30;;;12.10;99.90;;;;;;5051220;28;20029;-51
2023/09/23 02:33:10;;;;;;;6.50;3.93;;;12.00;99.90;;;;;;5051397;28;20094;-53
2023/09/23 02:35:35;;;;;;;5.80;3.47;;;12.00;99.90;;;;;;5052755;28;20465;-56
2023/09/23 02:38:01;;;;;;;10.20;3.63;;;12.00;99.90;;;;;;5051415;28;20036;-51
2023/09/23 02:40:27;;;;;;;9.03;3.93;;;12.00;99.90;;;;;;5052558;28;20103;-55
2023/09/23 02:42:57;;;;;;;5.77;3.33;;;12.00;99.90;;;;;;5052759;28;20029;-52
2023/09/23 02:45:23;;;;;;;11.25;4.07;;;12.00;99.90;;;;;;5051281;28;20564;-54
2023/09/23 02:47:50;;;;;;;7.67;3.90;;;11.90;99.90;;;;;;5052516;28;20021;-53
2023/09/23 02:50:17;;;;;;;6.77;3.73;;;11.90;99.90;;;;;;5050905;28;20039;-56
2023/09/23 02:52:44;;;;;;;7.20;3.60;;;11.90;99.90;;;;;;5052425;28;20564;-53
2023/09/23 02:55:15;;;;;;;7.80;3.40;;;11.90;99.90;;;;;;5051298;28;20052;-54
2023/09/23 02:57:45;;;;;;;7.40;3.07;;;11.90;99.90;;;;;;5051213;28;20032;-54
2023/09/23 03:00:20;;;;;;;5.90;3.13;;;11.80;99.90;;;;;;5050576;28;20036;-56
2023/09/23 03:02:54;;;;;;;5.53;3.20;;;11.80;99.90;;;;;;5050950;28;20474;-53
2023/09/23 03:05:29;;;;;;;5.53;3.00;;;11.80;99.90;;;;;;5052286;28;20470;-51
2023/09/23 03:07:58;;;;;;;6.07;3.00;;;11.80;99.90;;;;;;5052215;28;20048;-55
2023/09/23 03:10:39;;;;;;;;;;;11.80;99.90;;;;;;5051061;28;20485;-55
2023/09/23 03:13:07;;;;;;;3.43;2.30;;;11.90;99.90;;;;;;5050813;28;19912;-53
2023/09/23 03:15:46;;;;;;;4.30;2.30;;;11.90;99.90;;;;;;5051077;28;20214;-54
2023/09/23 03:18:15;;;;;;;5.63;2.35;;;11.90;99.90;;;;;;5050793;28;20033;-53
2023/09/23 03:20:41;;;;;;;4.28;2.22;;;11.90;99.90;;;;;;5050374;28;20162;-50
2023/09/23 03:23:10;;;;;;;5.17;2.23;;;11.90;99.90;;;;;;5050426;28;20123;-55
2023/09/23 03:25:48;;;;;;;5.27;2.47;;;11.90;99.90;;;;;;5050585;28;20040;-54
2023/09/23 03:28:18;;;;;;;;;;;11.90;99.90;;;;;;5051099;28;20549;-56
2023/09/23 03:30:48;;;;;;;5.43;1.83;;;11.90;99.90;;;;;;5050076;28;20038;-55
2023/09/23 03:33:18;;;;;;;3.00;1.87;;;11.90;99.90;;;;;;5050589;28;20048;-53
2023/09/23 03:35:44;;;;;;;4.03;2.30;;;11.90;99.90;;;;;;5049956;28;20112;-55
2023/09/23 03:38:11;;;;;;;3.10;1.43;;;11.90;99.90;;;;;;5050275;28;20180;-55
2023/09/23 03:40:38;;;;;;;4.27;1.70;;;11.90;99.90;;;;;;5049828;28;20038;-53
2023/09/23 03:43:05;;;;;;;3.87;1.50;;;11.90;99.90;;;;;;5050533;28;20386;-54
2023/09/23 03:45:34;;;;;;;3.87;1.80;;;11.90;99.90;;;;;;5050257;28;20035;-56
2023/09/23 03:48:00;;;;;;;3.90;1.60;;;11.90;99.90;;;;;;5051412;28;20038;-53
2023/09/23 03:50:26;;;;;;;2.10;1.30;;;11.80;99.90;;;;;;5049766;28;20072;-54
2023/09/23 03:52:52;;;;;;;3.43;1.40;;;11.80;99.90;;;;;;5050107;28;20060;-54
2023/09/23 03:55:18;;;;;;;3.35;1.52;;;11.80;99.90;;;;;;5050126;28;20060;-54
2023/09/23 03:57:46;;;;;;;2.43;1.30;;;11.80;99.90;;;;;;5049949;28;20032;-55
2023/09/23 04:00:21;;;;;;;11.63;4.97;;;11.90;99.90;;;;;;5050935;28;20024;-55
2023/09/23 04:02:47;;;;;;;4.50;1.80;;;11.80;99.90;;;;;;5049994;28;20072;-54
2023/09/23 04:05:16;;;;;;;2.63;1.17;;;11.90;99.90;;;;;;5049888;28;20053;-54
2023/09/23 04:07:50;;;;;;;4.57;1.30;;;11.90;99.90;;;;;;5049788;28;20566;-55
2023/09/23 04:10:18;;;;;;;3.43;1.10;;;11.90;99.90;;;;;;5050811;28;20233;-54
2023/09/23 04:12:43;;;;;;;3.30;1.30;;;11.90;99.90;;;;;;5051038;28;20029;-55
2023/09/23 04:15:11;;;;;;;2.80;1.00;;;11.90;99.90;;;;;;5051098;28;20472;-53
2023/09/23 04:17:39;;;;;;;1.67;1.03;;;12.00;99.90;;;;;;5050868;28;20032;-54
2023/09/23 04:20:09;;;;;;;5.00;1.08;;;11.90;99.90;;;;;;5050650;28;20032;-53
2023/09/23 04:22:36;;;;;;;3.70;1.00;;;11.90;99.90;;;;;;5051072;28;20094;-54
2023/09/23 04:25:04;;;;;;;4.07;1.50;;;11.90;99.90;;;;;;5051165;28;20052;-54
2023/09/23 04:27:31;;;;;;;3.73;1.07;;;11.90;99.90;;;;;;5051100;28;20063;-54
2023/09/23 04:29:56;;;;;;;4.53;1.08;;;11.90;99.90;;;;;;5050694;28;20561;-50
2023/09/23 04:32:22;;;;;;;3.10;0.90;;;11.90;99.90;;;;;;5050877;28;20120;-56
2023/09/23 04:34:48;;;;;;;7.17;1.40;;;11.90;99.90;;;;;;5051171;28;20104;-53
2023/09/23 04:37:14;;;;;;;4.37;1.00;;;11.90;99.90;;;;;;5050849;28;20134;-55
2023/09/23 04:39:39;;;;;;;4.00;0.90;;;11.90;99.90;;;;;;5050600;28;20028;-55
2023/09/23 04:42:05;;;;;;;2.13;0.97;;;11.90;99.90;;;;;;5050629;28;20041;-55
2023/09/23 04:44:34;;;;;;;3.53;1.47;;;11.90;99.90;;;;;;5050575;28;20036;-51
2023/09/23 04:47:00;;;;;;;1.63;0.80;;;11.80;99.90;;;;;;5049959;28;20437;-54
2023/09/23 04:49:27;;;;;;;1.57;0.77;;;11.90;99.90;;;;;;5050163;28;20028;-53
2023/09/23 04:51:52;;;;;;;2.87;0.80;;;11.90;99.90;;;;;;5050515;28;20033;-55
2023/09/23 04:54:18;;;;;;;2.47;0.70;;;11.90;99.90;;;;;;5050462;28;20037;-51
2023/09/23 04:56:44;;;;;;;1.33;0.70;;;11.90;99.90;;;;;;5050531;28;20040;-52
2023/09/23 04:59:11;;;;;;;1.83;0.70;;;11.80;99.90;;;;;;5050126;28;20043;-51
2023/09/23 05:01:37;;;;;;;1.60;0.90;;;11.80;99.90;;;;;;5049037;28;20029;-55
2023/09/23 05:04:08;;;;;;;1.67;0.80;;;11.80;99.90;;;;;;5050462;28;20509;-54
2023/09/23 05:06:36;;;;;;;1.57;0.87;;;11.80;99.90;;;;;;5050456;28;20540;-55
2023/09/23 05:09:02;;;;;;;4.53;1.00;;;11.80;99.90;;;;;;5048922;28;20040;-56
2023/09/23 05:11:28;;;;;;;1.83;0.70;;;11.80;99.90;;;;;;5050020;28;20036;-53
2023/09/23 05:13:54;;;;;;;2.90;1.00;;;11.80;99.90;;;;;;5048978;28;20041;-55
2023/09/23 05:16:19;;;;;;;2.07;0.90;;;11.80;99.90;;;;;;5050297;28;20033;-56
2023/09/23 05:18:46;;;;;;;4.20;1.50;;;11.80;99.90;;;;;;5050482;28;20169;-52
2023/09/23 05:21:13;;;;;;;4.70;1.00;;;11.90;99.90;;;;;;5050088;28;20029;-55
2023/09/23 05:23:41;;;;;;;2.57;0.90;;;11.90;99.90;;;;;;5050191;28;20029;-52
2023/09/23 05:26:07;;;;;;;3.30;1.00;;;11.90;99.90;;;;;;5050139;28;20398;-54
2023/09/23 05:28:33;;;;;;;1.97;0.93;;;11.90;99.90;;;;;;5049984;28;20037;-56
2023/09/23 05:30:59;;;;;;;1.63;0.70;;;11.80;99.90;;;;;;5049887;28;20048;-51
2023/09/23 05:33:25;;;;;;;2.37;1.13;;;11.80;99.90;;;;;;5048892;28;20060;-55
2023/09/23 05:35:52;;;;;;;2.60;0.80;;;11.80;99.90;;;;;;5048853;28;20544;-55
2023/09/23 05:38:19;;;;;;;6.60;1.17;;;11.80;99.90;;;;;;5049921;28;20056;-53
2023/09/23 05:40:46;;;;;;;3.60;1.00;;;11.80;99.90;;;;;;5049568;28;20473;-52
2023/09/23 05:43:12;;;;;;;2.33;1.10;;;11.80;99.90;;;;;;5050191;28;20490;-53
2023/09/23 05:45:37;;;;;;;3.63;1.20;;;11.80;99.90;;;;;;5049885;28;20029;-52
2023/09/23 05:48:04;;;;;;;3.40;0.90;;;11.80;99.90;;;;;;5049869;28;20025;-52
2023/09/23 05:50:31;;;;;;;4.23;0.90;;;11.90;99.90;;;;;;5049597;28;20535;-51
2023/09/23 05:52:57;;;;;;;2.73;1.10;;;11.90;99.90;;;;;;5049834;28;20090;-51
2023/09/23 05:55:23;;;;;;;2.17;1.25;;;11.90;99.90;;;;;;5049826;28;20028;-54
2023/09/23 05:57:49;;;;;;;4.30;1.37;;;12.00;99.90;;;;;;5049817;28;20025;-52
2023/09/23 06:00:15;;;;;;;2.95;0.93;;;12.00;99.90;;;;;;5053174;28;20033;-56
2023/09/23 06:02:41;;;;;;;2.27;1.07;;;12.00;99.90;;;;;;5053504;28;20485;-54
2023/09/23 06:05:07;;;;;;;4.35;1.25;;;12.00;99.90;;;;;;5053387;28;20032;-52
2023/09/23 06:07:33;;;;;;;2.38;1.20;;;12.00;99.90;;;;;;5053263;28;20424;-56
2023/09/23 06:09:59;;;;;;;4.90;1.33;;;11.90;99.90;;;;;;5052907;28;20037;-52
2023/09/23 06:12:29;;;;;;;5.93;1.67;;;11.90;99.90;;;;;;5053228;28;20108;-55
2023/09/23 06:15:03;;;;;;;4.00;1.10;;;12.00;99.90;;;;;;5053281;28;20028;-52
2023/09/23 06:17:29;;;;;;;4.40;1.30;;;12.00;99.90;;;;;;5053272;28;20435;-52
2023/09/23 06:19:58;;;;;;;3.60;1.40;;;12.00;99.90;;;;;;5052850;28;20029;-54
2023/09/23 06:22:23;;;;;;;;;;;12.00;99.90;;;;;;5053701;28;20118;-56
2023/09/23 06:24:50;;;;;;;3.47;1.30;;;12.00;99.90;;;;;;5052972;28;19955;-54
2023/09/23 06:27:16;;;;;;;6.30;2.13;;;12.00;99.90;;;;;;5051879;28;20054;-55
2023/09/23 06:29:43;;;;;;;3.10;1.30;;;12.00;99.90;;;;;;5052524;28;20041;-51
2023/09/23 06:32:08;;;;;;;3.93;1.67;;;12.00;99.90;;;;;;5052800;28;20033;-51
2023/09/23 06:34:34;;;;;;;3.43;1.20;;;12.00;99.90;;;;;;5052960;28;20066;-54
2023/09/23 06:37:00;;;;;;;2.87;1.50;;;12.00;99.90;;;;;;5052809;28;20462;-52
2023/09/23 06:39:26;;;;;;;1.65;0.95;;;12.10;99.90;;;;;;5052328;28;20037;-52
2023/09/23 06:41:51;;;;;;;3.53;1.30;;;12.20;99.90;;;;;;5052701;28;20486;-50
2023/09/23 06:44:17;;;;;;;3.20;1.57;;;12.20;99.90;;;;;;5052736;28;20116;-52
2023/09/23 06:46:42;;;;;;;1.93;1.30;;;12.20;99.90;;;;;;5052761;28;20025;-54
2023/09/23 06:49:08;;;;;;;2.75;1.30;;;12.20;99.90;;;;;;5052258;28;20091;-53
2023/09/23 06:51:34;;;;;;;1.70;1.13;;;12.20;99.90;;;;;;5052280;28;20025;-54
2023/09/23 06:53:59;;;;;;;4.28;1.60;;;12.30;99.90;;;;;;5052334;28;20120;-51
2023/09/23 06:56:25;;;;;;;4.63;1.65;;;12.30;99.90;;;;;;5052841;28;20035;-50
2023/09/23 06:58:51;;;;;;;5.30;1.58;;;12.40;99.90;;;;;;5052180;28;20049;-51
2023/09/23 07:01:17;;;;;;;4.07;1.90;;;12.50;99.90;;;;;;5052267;28;20429;-53
2023/09/23 07:03:43;;;;;;;5.07;1.55;;;12.50;99.90;;;;;;5052455;28;20072;-54
2023/09/23 07:06:09;;;;;;;6.90;2.33;;;12.50;99.90;;;;;;5052071;28;20406;-53
2023/09/23 07:08:34;;;;;;;5.68;2.10;;;12.60;99.90;;;;;;5052096;28;20021;-53
2023/09/23 07:11:00;;;;;;;7.18;3.10;;;12.60;99.90;;;;;;5051793;28;20033;-51
2023/09/23 07:13:26;;;;;;;5.97;2.05;;;12.60;99.90;;;;;;5053271;28;20037;-55
2023/09/23 07:15:51;;;;;;;3.80;1.63;;;12.60;99.90;;;;;;5052859;28;20017;-56
2023/09/23 07:18:17;;;;;;;5.00;2.03;;;12.70;99.90;;;;;;5052657;28;20029;-53
2023/09/23 07:20:43;;;;;;;12.10;2.88;;;12.70;99.90;;;;;;5052282;28;20033;-55
2023/09/23 07:23:08;;;;;;;4.70;2.88;;;12.70;99.90;;;;;;5053245;28;20047;-54
2023/09/23 07:25:42;;;;;;;7.38;2.72;;;12.80;99.90;;;;;;5052570;28;20094;-55
2023/09/23 07:28:08;;;;;;;8.25;2.97;;;12.80;99.90;;;;;;5053467;28;20187;-55
2023/09/23 07:30:35;;;;;;;5.85;2.20;;;12.80;99.90;;;;;;5052163;28;20036;-55
2023/09/23 07:33:00;;;;;;;7.38;3.00;;;12.80;99.90;;;;;;5053232;28;20025;-56
2023/09/23 07:35:33;;;;;;;9.00;2.63;;;12.90;99.90;;;;;;5052000;28;20393;-53
2023/09/23 07:37:59;;;;;;;8.15;2.65;;;12.80;99.90;;;;;;5051521;28;20028;-53
2023/09/23 07:40:26;;;;;;;5.18;2.70;;;12.90;99.90;;;;;;5051292;28;20075;-53
2023/09/23 07:42:51;;;;;;;4.75;2.60;;;12.90;99.90;;;;;;5051499;28;20029;-52
2023/09/23 07:45:17;;;;;;;8.98;2.78;;;12.90;99.90;;;;;;5051670;28;20021;-50
2023/09/23 07:47:43;;;;;;;6.38;3.25;;;13.00;99.90;;;;;;5051260;28;20440;-51
2023/09/23 07:50:09;;;;;;;5.05;2.70;;;13.00;99.90;;;;;;5051002;28;20037;-49
2023/09/23 07:52:35;;;;;;;5.22;2.28;;;13.10;99.90;;;;;;5050002;28;20094;-51
2023/09/23 07:55:02;;;;;;;6.68;2.38;;;13.10;99.90;;;;;;5051496;28;20377;-50
2023/09/23 07:57:27;;;;;;;5.55;1.88;;;13.10;99.90;;;;;;5051268;28;20025;-53
2023/09/23 07:59:53;;;;;;;3.80;2.67;;;13.20;99.90;;;;;;5050959;28;20032;-53
2023/09/23 08:02:18;;;;;;;6.72;1.63;;;13.10;99.90;;;;;;5051041;28;20266;-54
2023/09/23 08:04:44;;;;;;;4.13;1.60;;;13.10;99.90;;;;;;5051031;28;20059;-54
2023/09/23 08:07:11;;;;;;;3.58;1.40;;;13.20;99.90;;;;;;5051362;28;20046;-51
2023/09/23 08:09:37;;;;;;;7.40;1.45;;;13.30;99.90;;;;;;5050764;28;20487;-56
2023/09/23 08:12:03;;;;;;;3.72;1.40;;;13.50;99.90;;;;;;5050759;28;20043;-53
2023/09/23 08:14:29;;;;;;;6.05;1.85;;;13.60;99.90;;;;;;5050935;28;20033;-53
2023/09/23 08:16:55;;;;;;;4.15;1.73;;;13.80;99.90;;;;;;5050865;28;20037;-54
2023/09/23 08:19:21;;;;;;;3.03;1.38;;;13.90;99.90;;;;;;5050449;28;20531;-55
2023/09/23 08:21:47;;;;;;;2.45;1.27;;;14.10;99.90;;;;;;5050841;28;20063;-53
2023/09/23 08:24:12;;;;;;;2.38;1.35;;;14.10;99.90;;;;;;5050663;28;20091;-54
2023/09/23 08:26:38;;;;;;;2.58;1.45;;;14.20;99.90;;;;;;5050728;28;20033;-54
2023/09/23 08:29:05;;;;;;;4.85;1.50;;;14.30;99.90;;;;;;5050586;28;20032;-51
2023/09/23 08:31:31;;;;;;;4.28;1.70;;;14.30;99.90;;;;;;5050511;28;20025;-50
2023/09/23 08:33:57;;;;;;;4.47;1.20;;;14.30;99.90;;;;;;5050491;28;20037;-52
2023/09/23 08:36:22;;;;;;;3.70;1.20;;;14.40;99.90;;;;;;5050742;28;20039;-52
2023/09/23 08:38:48;;;;;;;6.53;1.60;;;14.30;99.90;;;;;;5048972;28;20024;-53
2023/09/23 08:41:17;;;;;;;2.67;1.23;;;14.30;99.90;;;;;;5050343;28;20283;-52
2023/09/23 08:43:43;;;;;;;8.00;3.17;;;14.40;99.90;;;;;;5050559;28;20119;-52
2023/09/23 08:46:11;;;;;;;9.13;4.40;;;14.30;99.90;;;;;;5050567;28;20120;-54
2023/09/23 08:48:38;;;;;;;3.45;1.45;;;14.50;99.90;;;;;;5050187;28;20481;-55
2023/09/23 08:51:06;;;;;;;3.75;1.80;;;14.60;99.90;;;;;;5050231;28;20033;-54
2023/09/23 08:53:34;;;;;;;4.65;1.70;;;14.70;99.90;;;;;;5050341;28;20029;-51
2023/09/23 08:56:00;;;;;;;3.70;1.98;;;14.70;99.90;;;;;;5049131;28;20040;-53
2023/09/23 08:58:26;;;;;;;3.55;2.10;;;14.80;99.90;;;;;;5050139;28;20439;-53
2023/09/23 09:00:53;;;;;;;3.67;1.80;;;14.90;99.90;;;;;;5050142;28;20025;-56
2023/09/23 09:03:18;;;;;;;4.95;1.90;;;15.10;99.90;;;;;;5050404;28;20033;-53
2023/09/23 09:05:46;;;;;;;4.65;1.55;;;15.20;99.90;;;;;;5050453;28;20259;-55
2023/09/23 09:08:12;;;;;;;3.60;1.63;;;15.20;99.90;;;;;;5050232;28;20040;-53
2023/09/23 09:10:40;;;;;;;2.33;1.35;;;15.20;99.90;;;;;;5049989;28;20033;-55
2023/09/23 09:13:06;;;;;;;6.85;1.50;;;15.10;99.90;;;;;;5050324;28;20105;-53
2023/09/23 09:15:36;;;;;;;3.05;1.42;;;14.90;99.90;;;;;;5050429;28;20072;-54
2023/09/23 09:18:02;;;;;;;3.70;1.77;;;14.80;99.90;;;;;;5050157;28;20021;-52
2023/09/23 09:20:28;;;;;;;6.22;1.63;;;14.70;99.90;;;;;;5049885;28;20390;-53
2023/09/23 09:22:54;;;;;;;4.13;1.58;;;14.80;99.90;;;;;;5050015;28;20051;-53
2023/09/23 09:25:23;;;;;;;2.90;1.70;;;14.90;99.90;;;;;;5048950;28;20029;-52
2023/09/23 09:27:51;;;;;;;5.55;1.52;;;15.00;99.90;;;;;;5050048;28;20121;-51
2023/09/23 09:30:19;;;;;;;2.33;1.33;;;15.10;99.90;;;;;;5049871;28;20397;-56
2023/09/23 09:32:45;;;;;;;2.58;1.65;;;15.10;99.90;;;;;;5050396;28;20032;-54
2023/09/23 09:35:18;;;;;;;4.80;1.63;;;15.20;99.90;;;;;;5053977;28;20367;-54
2023/09/23 09:37:46;;;;;;;3.50;1.33;;;15.10;99.90;;;;;;5053795;28;20029;-54
2023/09/23 09:40:17;;;;;;;2.60;1.15;;;15.30;99.90;;;;;;5053427;28;20032;-55
2023/09/23 09:42:57;;;;;;;2.90;1.20;;;15.40;99.90;;;;;;5053966;28;20060;-54
2023/09/23 09:45:23;;;;;;;2.63;1.25;;;15.60;99.90;;;;;;5053902;28;20033;-54
2023/09/23 09:47:51;;;;;;;5.47;1.83;;;16.00;99.90;;;;;;5053947;28;20037;-55
2023/09/23 09:50:17;;;;;;;5.73;2.50;;;16.30;99.90;;;;;;5053408;28;20500;-52
2023/09/23 09:52:43;;;;;;;4.20;1.73;;;16.40;99.90;;;;;;5053625;28;20482;-56
2023/09/23 09:55:14;;;;;;;4.07;1.60;;;16.40;99.90;;;;;;5053622;28;20115;-55
2023/09/23 09:57:41;;;;;;;3.65;1.73;;;16.20;99.90;;;;;;5053668;28;20079;-54
2023/09/23 10:00:15;;;;;;;3.92;1.70;;;16.00;99.90;;;;;;5053311;28;20029;-54
2023/09/23 10:02:43;;;;;;;4.90;2.08;;;15.90;99.90;;;;;;5053743;28;20043;-56
2023/09/23 10:05:15;;;;;;;5.23;2.23;;;15.80;99.90;;;;;;5053590;28;20052;-54
2023/09/23 10:07:56;;;;;;;5.72;1.90;;;15.70;99.90;;;;;;5053659;28;20470;-54
2023/09/23 10:10:31;;;;;;;2.42;1.83;;;15.60;99.90;;;;;;5053100;28;20067;-53
2023/09/23 10:13:05;;;;;;;1.85;1.30;;;15.70;99.90;;;;;;5053422;28;20450;-53
2023/09/23 10:15:36;;;;;;;5.70;1.50;;;15.90;99.90;;;;;;5053435;28;20063;-56
2023/09/23 10:18:07;;;;;;;18.75;8.52;;;16.00;99.90;;;;;;5053173;28;20037;-55
2023/09/23 10:20:36;;;;;;;32.45;14.43;;;16.10;99.90;;;;;;5052928;28;20079;-56
2023/09/23 10:23:02;;;;;;;;;;;16.40;99.90;;;;;;5053748;28;20028;-55
2023/09/23 10:25:38;;;;;;;4.10;2.45;;;16.90;99.90;;;;;;5053017;28;20413;-54
2023/09/23 10:28:07;;;;;;;2.17;1.20;;;17.00;99.90;;;;;;5053044;28;20057;-56
2023/09/23 10:30:35;;;;;;;3.47;1.15;;;16.80;99.90;;;;;;5052619;28;20048;-56
2023/09/23 10:33:02;;;;;;;3.85;1.25;;;16.50;99.90;;;;;;5052896;28;20593;-56
2023/09/23 10:35:27;;;;;;;1.88;1.17;;;16.40;99.90;;;;;;5052866;28;20037;-54
2023/09/23 10:37:53;;;;;;;6.05;1.10;;;16.60;99.90;;;;;;5052875;28;20035;-55
2023/09/23 10:40:20;;;;;;;2.17;1.00;;;17.20;99.90;;;;;;5051227;28;20108;-52
2023/09/23 10:42:46;;;;;;;4.82;0.98;;;18.20;99.90;;;;;;5052669;28;20040;-53
2023/09/23 10:45:13;;;;;;;2.45;1.02;;;18.70;99.90;;;;;;5051830;28;20071;-52
2023/09/23 10:47:40;;;;;;;1.98;0.90;;;18.70;99.90;;;;;;5052804;28;20029;-55
2023/09/23 10:50:07;;;;;;;3.53;0.90;;;18.50;99.90;;;;;;5052059;28;20035;-52
2023/09/23 10:52:33;;;;;;;2.15;1.27;;;18.10;99.90;;;;;;5051217;28;20029;-55
2023/09/23 10:54:59;;;;;;;2.53;0.95;;;17.70;99.90;;;;;;5052586;28;20025;-55
2023/09/23 10:57:25;;;;;;;1.83;1.10;;;17.30;99.90;;;;;;5052867;28;20025;-54
2023/09/23 10:59:52;;;;;;;4.78;1.35;;;17.10;99.90;;;;;;5052098;28;20075;-56
2023/09/23 11:02:22;;;;;;;3.55;1.15;;;16.80;99.90;;;;;;5052498;28;20033;-56
2023/09/23 11:04:49;;;;;;;3.00;1.05;;;16.60;99.90;;;;;;5052190;28;20037;-52
2023/09/23 11:07:16;;;;;;;2.42;1.02;;;16.50;99.90;;;;;;5052193;28;20039;-57
2023/09/23 11:09:43;;;;;;;1.50;0.85;;;16.40;99.90;;;;;;5050676;28;20040;-55
2023/09/23 11:12:12;;;;;;;3.80;0.80;;;16.50;99.90;;;;;;5052179;28;20040;-55
2023/09/23 11:14:50;;;;;;;3.70;0.77;;;16.50;99.90;;;;;;5052414;28;20048;-55
2023/09/23 11:17:25;;;;;;;2.50;1.30;;;16.50;99.90;;;;;;5052088;28;20182;-54
2023/09/23 11:19:55;;;;;;;2.38;0.88;;;16.40;99.90;;;;;;5051635;28;20035;-57
2023/09/23 11:22:30;;;;;;;2.47;1.20;;;16.50;99.90;;;;;;5052002;28;20566;-55
2023/09/23 11:24:57;;;;;;;1.83;0.90;;;16.80;99.90;;;;;;5051872;28;20047;-54
2023/09/23 11:27:26;;;;;;;2.78;0.90;;;16.80;99.90;;;;;;5051881;28;20078;-55
2023/09/23 11:29:53;;;;;;;0.93;0.80;;;16.90;99.90;;;;;;5051477;28;20033;-51
2023/09/23 11:32:26;;;;;;;2.53;0.80;;;16.80;99.90;;;;;;5051635;28;20025;-55
2023/09/23 11:34:52;;;;;;;2.90;1.00;;;17.00;99.90;;;;;;5050363;28;20041;-54
2023/09/23 11:37:25;;;;;;;2.70;0.82;;;17.00;99.90;;;;;;5051809;28;20025;-55
2023/09/23 11:39:50;;;;;;;1.98;1.00;;;17.00;99.90;;;;;;5051560;28;20032;-54
2023/09/23 11:42:16;;;;;;;3.38;0.80;;;16.90;99.90;;;;;;5051620;28;20416;-54
2023/09/23 11:44:43;;;;;;;1.20;0.70;;;16.90;99.90;;;;;;5051587;28;20124;-54
2023/09/23 11:47:10;;;;;;;4.45;1.00;;;16.80;99.90;;;;;;5051560;28;20040;-54
2023/09/23 11:49:36;;;;;;;2.70;0.80;;;16.70;99.90;;;;;;5050898;28;20033;-52
2023/09/23 11:52:04;;;;;;;1.67;0.95;;;16.70;99.90;;;;;;5050086;28;20040;-56
2023/09/23 11:54:29;;;;;;;2.00;0.93;;;16.60;99.90;;;;;;5051361;28;20516;-54
2023/09/23 11:56:55;;;;;;;1.13;0.80;;;16.50;99.90;;;;;;5051089;28;20057;-52
2023/09/23 11:59:23;;;;;;;2.67;0.80;;;16.40;99.90;;;;;;5051037;28;20048;-54
2023/09/23 12:01:50;;;;;;;2.00;0.75;;;16.40;99.90;;;;;;5051275;28;20035;-53
2023/09/23 12:04:15;;;;;;;1.90;0.80;;;16.40;99.90;;;;;;5049847;28;20064;-53
2023/09/23 12:06:41;;;;;;;3.45;0.90;;;16.30;99.90;;;;;;5051203;28;20053;-56
2023/09/23 12:09:10;;;;;;;2.72;0.80;;;16.30;99.90;;;;;;5051002;28;20410;-54
2023/09/23 12:11:37;;;;;;;2.10;0.75;;;16.30;99.90;;;;;;5050960;28;20049;-52
2023/09/23 12:14:03;;;;;;;2.47;0.90;;;16.40;99.90;;;;;;5050911;28;20025;-54
2023/09/23 12:16:28;;;;;;;2.47;0.60;;;16.60;99.90;;;;;;5050921;28;20032;-53
2023/09/23 12:18:54;;;;;;;1.10;0.85;;;16.70;99.90;;;;;;5050901;28;20465;-55
2023/09/23 12:21:20;;;;;;;2.30;0.80;;;16.90;99.90;;;;;;5051074;28;20382;-52
2023/09/23 12:23:45;;;;;;;1.58;0.65;;;17.00;99.90;;;;;;5050721;28;20413;-54
2023/09/23 12:26:11;;;;;;;4.10;1.05;;;17.10;99.90;;;;;;5050825;28;20405;-54
2023/09/23 12:28:37;;;;;;;2.00;0.80;;;17.20;99.90;;;;;;5050561;28;20064;-52
2023/09/23 12:31:03;;;;;;;3.88;0.70;;;17.30;99.90;;;;;;5050641;28;20476;-54
2023/09/23 12:33:29;;;;;;;3.10;0.73;;;17.40;99.90;;;;;;5050580;28;20064;-52
2023/09/23 12:35:54;;;;;;;2.72;1.02;;;17.40;99.90;;;;;;5050744;28;20029;-52
2023/09/23 12:38:20;;;;;;;3.38;0.70;;;17.40;99.90;;;;;;5050593;28;20032;-49
2023/09/23 12:40:46;;;;;;;7.38;1.15;;;17.60;99.90;;;;;;5050421;28;20254;-51
2023/09/23 12:43:12;;;;;;;2.13;0.90;;;17.50;99.90;;;;;;5050626;28;20112;-49
2023/09/23 12:45:40;;;;;;;5.55;1.10;;;17.50;99.90;;;;;;5050557;28;20040;-50